createdAt,value
2018-12-14T00:01:06.406Z,13.43
2018-12-14T00:03:39.011Z,14.63
2018-12-14T00:06:16.166Z,13.87
2018-12-14T00:08:48.579Z,14.17
2018-12-14T00:11:25.749Z,14.40
2018-12-14T00:13:58.901Z,13.83
2018-12-14T00:16:31.927Z,14.13
2018-12-14T00:19:04.274Z,13.23
2018-12-14T00:21:37.330Z,14.47
2018-12-14T00:24:09.571Z,14.43
2018-12-14T00:26:46.534Z,13.70
2018-12-14T00:29:19.629Z,13.80
2018-12-14T00:31:52.647Z,14.43
2018-12-14T00:34:28.841Z,13.90
2018-12-14T00:37:01.961Z,15.00
2018-12-14T00:39:34.893Z,14.70
2018-12-14T00:42:07.098Z,14.43
2018-12-14T00:44:40.107Z,14.87
2018-12-14T00:47:13.307Z,13.83
2018-12-14T00:49:50.143Z,14.20
2018-12-14T00:52:23.345Z,14.43
2018-12-14T00:54:55.705Z,14.00
2018-12-14T00:57:28.013Z,13.73
2018-12-14T01:00:01.095Z,14.53
2018-12-14T01:02:33.390Z,14.00
2018-12-14T01:05:05.923Z,13.07
2018-12-14T01:07:38.940Z,14.63
2018-12-14T01:10:11.998Z,13.13
2018-12-14T01:12:48.218Z,14.00
2018-12-14T01:15:24.450Z,14.33
2018-12-14T01:17:57.645Z,14.17
2018-12-14T01:20:33.912Z,14.13
2018-12-14T01:23:10.927Z,13.37
2018-12-14T01:25:44.180Z,14.17
2018-12-14T01:28:16.971Z,13.87
2018-12-14T01:30:49.911Z,14.20
2018-12-14T01:33:23.082Z,14.63
2018-12-14T01:35:59.274Z,15.60
2018-12-14T01:38:32.393Z,14.93
2018-12-14T01:41:08.630Z,15.27
2018-12-14T01:43:41.740Z,16.23
2018-12-14T01:46:17.954Z,16.33
2018-12-14T01:48:55.117Z,15.73
2018-12-14T01:51:32.238Z,15.87
2018-12-14T01:54:05.273Z,15.63
2018-12-14T01:56:37.841Z,15.63
2018-12-14T01:59:10.931Z,15.90
2018-12-14T02:01:48.076Z,16.23
2018-12-14T02:04:20.278Z,16.30
2018-12-14T02:06:53.283Z,15.37
2018-12-14T02:09:27.495Z,14.20
2018-12-14T02:12:11.000Z,15.00
2018-12-14T02:14:38.810Z,15.33
2018-12-14T02:17:16.370Z,15.43
2018-12-14T02:19:49.289Z,14.90
2018-12-14T02:22:26.450Z,16.57
2018-12-14T02:24:59.514Z,14.33
2018-12-14T02:27:32.566Z,14.13
2018-12-14T02:30:16.358Z,13.87
2018-12-14T02:32:49.454Z,14.17
2018-12-14T02:35:22.443Z,14.53
2018-12-14T02:37:55.901Z,14.00
2018-12-14T02:40:28.474Z,13.90
2018-12-14T02:43:00.906Z,14.27
2018-12-14T02:45:37.986Z,13.53
2018-12-14T02:48:15.174Z,13.93
2018-12-14T02:50:48.139Z,13.00
2018-12-14T02:53:24.345Z,14.00
2018-12-14T02:55:57.400Z,13.47
2018-12-14T02:58:34.378Z,13.93
2018-12-14T03:01:07.480Z,13.77
2018-12-14T03:03:39.799Z,15.00
2018-12-14T03:06:16.175Z,14.00
2018-12-14T03:08:49.114Z,14.70
2018-12-14T03:11:25.451Z,13.60
2018-12-14T03:13:58.454Z,13.63
2018-12-14T03:16:34.764Z,13.83
2018-12-14T03:19:12.089Z,13.33
2018-12-14T03:21:44.260Z,14.40
2018-12-14T03:24:16.530Z,13.77
2018-12-14T03:26:49.010Z,13.70
2018-12-14T03:29:22.034Z,13.53
2018-12-14T03:31:55.160Z,13.80
2018-12-14T03:34:31.362Z,13.27
2018-12-14T03:37:04.511Z,13.43
2018-12-14T03:39:40.720Z,14.77
2018-12-14T03:42:17.039Z,14.57
2018-12-14T03:44:50.172Z,14.97
2018-12-14T03:47:27.461Z,15.27
2018-12-14T03:50:04.765Z,14.43
2018-12-14T03:52:41.006Z,14.10
2018-12-14T03:55:14.006Z,14.97
2018-12-14T03:57:51.346Z,15.03
2018-12-14T04:00:24.736Z,16.23
2018-12-14T04:02:57.899Z,16.13
2018-12-14T04:05:31.272Z,16.17
2018-12-14T04:08:08.133Z,15.43
2018-12-14T04:10:44.333Z,15.07
2018-12-14T04:13:17.310Z,15.40
2018-12-14T04:15:53.471Z,15.17
2018-12-14T04:18:31.050Z,15.10
2018-12-14T04:21:03.375Z,15.57
2018-12-14T04:23:36.283Z,15.97
2018-12-14T04:26:09.281Z,15.53
2018-12-14T04:28:41.694Z,16.10
2018-12-14T04:31:14.822Z,15.70
2018-12-14T04:33:47.789Z,14.70
2018-12-14T04:36:24.802Z,15.53
2018-12-14T04:38:57.418Z,15.83
2018-12-14T04:41:34.550Z,16.77
2018-12-14T04:44:06.754Z,15.70
2018-12-14T04:46:43.900Z,16.87
2018-12-14T04:49:16.927Z,16.03
2018-12-14T04:51:53.237Z,16.80
2018-12-14T04:54:29.482Z,16.53
2018-12-14T04:57:05.987Z,16.33
2018-12-14T04:59:38.839Z,16.80
2018-12-14T05:02:15.275Z,15.30
2018-12-14T05:04:48.227Z,16.83
2018-12-14T05:07:21.269Z,15.90
2018-12-14T05:09:57.496Z,15.77
2018-12-14T05:12:30.605Z,17.30
2018-12-14T05:15:03.641Z,15.80
2018-12-14T05:17:36.667Z,16.63
2018-12-14T05:20:13.820Z,18.07
2018-12-14T05:22:46.896Z,16.27
2018-12-14T05:25:23.891Z,16.77
2018-12-14T05:27:56.365Z,16.17
2018-12-14T05:30:29.595Z,16.50
2018-12-14T05:33:02.535Z,17.53
2018-12-14T05:35:35.710Z,17.63
2018-12-14T05:38:12.129Z,16.93
2018-12-14T05:40:45.314Z,17.57
2018-12-14T05:43:18.490Z,16.77
2018-12-14T05:45:50.878Z,18.63
2018-12-14T05:48:23.216Z,16.67
2018-12-14T05:50:56.163Z,16.40
2018-12-14T05:53:28.451Z,17.33
2018-12-14T05:56:04.725Z,17.03
2018-12-14T05:58:37.955Z,16.63
2018-12-14T06:01:11.135Z,17.27
2018-12-14T06:03:44.294Z,16.30
2018-12-14T06:06:17.485Z,17.00
2018-12-14T06:08:50.735Z,16.03
2018-12-14T06:11:23.892Z,15.70
2018-12-14T06:13:56.915Z,15.97
2018-12-14T06:16:32.866Z,15.73
2018-12-14T06:19:05.330Z,16.33
2018-12-14T06:21:38.500Z,16.13
2018-12-14T06:24:11.442Z,15.83
2018-12-14T06:26:48.504Z,15.80
2018-12-14T06:29:21.570Z,14.80
2018-12-14T06:31:54.797Z,16.93
2018-12-14T06:34:27.974Z,16.37
2018-12-14T06:37:00.948Z,15.23
2018-12-14T06:39:34.140Z,16.97
2018-12-14T06:42:06.707Z,16.47
2018-12-14T06:44:39.766Z,16.57
2018-12-14T06:47:13.294Z,16.47
2018-12-14T06:49:46.082Z,15.83
2018-12-14T06:52:19.516Z,16.07
2018-12-14T06:54:52.490Z,16.13
2018-12-14T06:57:24.958Z,16.63
2018-12-14T06:59:58.137Z,17.77
2018-12-14T07:02:34.459Z,16.03
2018-12-14T07:05:07.905Z,17.30
2018-12-14T07:07:40.881Z,17.83
2018-12-14T07:10:17.276Z,16.67
2018-12-14T07:12:50.426Z,17.80
2018-12-14T07:15:22.857Z,17.97
2018-12-14T07:18:00.146Z,17.33
2018-12-14T07:20:36.582Z,17.13
2018-12-14T07:23:09.571Z,17.70
2018-12-14T07:25:42.732Z,18.20
2018-12-14T07:28:15.252Z,19.13
2018-12-14T07:30:48.227Z,18.80
2018-12-14T07:33:20.506Z,18.30
2018-12-14T07:35:56.931Z,17.33
2018-12-14T07:38:29.391Z,18.60
2018-12-14T07:41:01.714Z,18.67
2018-12-14T07:43:34.248Z,17.03
2018-12-14T07:46:07.078Z,17.87
2018-12-14T07:48:40.134Z,17.87
2018-12-14T07:51:13.335Z,18.00
2018-12-14T07:53:46.416Z,18.30
2018-12-14T07:56:18.686Z,18.07
2018-12-14T07:58:51.811Z,17.90
2018-12-14T08:01:28.619Z,19.57
2018-12-14T08:04:01.904Z,17.83
2018-12-14T08:06:34.431Z,18.67
2018-12-14T08:09:08.675Z,20.10
2018-12-14T08:11:45.726Z,19.73
2018-12-14T08:14:18.727Z,19.60
2018-12-14T08:16:55.102Z,20.57
2018-12-14T08:19:28.334Z,20.53
2018-12-14T08:22:01.490Z,20.60
2018-12-14T08:24:34.665Z,20.57
2018-12-14T08:27:07.214Z,20.53
2018-12-14T08:29:40.384Z,20.87
2018-12-14T08:32:13.716Z,19.87
2018-12-14T08:34:50.933Z,20.00
2018-12-14T08:37:22.030Z,19.43
2018-12-14T08:39:55.012Z,19.53
2018-12-14T08:42:31.272Z,20.23
2018-12-14T08:45:08.519Z,19.73
2018-12-14T08:47:45.898Z,20.30
2018-12-14T08:50:18.484Z,18.63
2018-12-14T08:52:51.556Z,20.57
2018-12-14T08:55:24.610Z,19.20
2018-12-14T08:57:57.749Z,20.63
2018-12-14T09:00:30.790Z,19.40
2018-12-14T09:03:03.978Z,20.10
2018-12-14T09:05:36.311Z,20.10
2018-12-14T09:08:13.541Z,20.73
2018-12-14T09:10:46.521Z,19.87
2018-12-14T09:13:19.478Z,19.97
2018-12-14T09:15:52.562Z,20.70
2018-12-14T09:18:25.077Z,19.13
2018-12-14T09:21:00.982Z,20.50
2018-12-14T09:23:36.376Z,19.90
2018-12-14T09:26:09.670Z,20.23
2018-12-14T09:28:43.138Z,19.50
2018-12-14T09:31:16.904Z,19.67
2018-12-14T09:33:49.871Z,20.60
2018-12-14T09:36:26.225Z,20.37
2018-12-14T09:38:59.540Z,20.57
2018-12-14T09:41:32.682Z,21.23
2018-12-14T09:44:05.730Z,22.23
2018-12-14T09:46:37.970Z,20.50
2018-12-14T09:49:11.198Z,20.83
2018-12-14T09:51:44.354Z,20.50
2018-12-14T09:54:17.750Z,21.87
2018-12-14T09:56:50.548Z,22.20
2018-12-14T09:59:24.619Z,21.90
2018-12-14T10:02:01.054Z,22.30
2018-12-14T10:04:38.102Z,21.47
2018-12-14T10:07:11.219Z,22.27
2018-12-14T10:09:49.546Z,23.13
2018-12-14T10:12:26.702Z,21.43
2018-12-14T10:14:59.626Z,22.10
2018-12-14T10:17:32.807Z,21.43
2018-12-14T10:20:10.636Z,22.67
2018-12-14T10:22:46.893Z,20.87
2018-12-14T10:25:20.058Z,21.17
2018-12-14T10:27:53.234Z,21.53
2018-12-14T10:30:26.303Z,21.93
2018-12-14T10:32:59.531Z,21.67
2018-12-14T10:35:32.651Z,22.10
2018-12-14T10:38:10.313Z,21.87
2018-12-14T10:40:47.466Z,20.67
2018-12-14T10:43:20.441Z,21.80
2018-12-14T10:45:59.806Z,22.33
2018-12-14T10:48:32.679Z,22.23
2018-12-14T10:51:09.298Z,22.13
2018-12-14T10:53:42.441Z,20.77
2018-12-14T10:56:15.479Z,21.07
2018-12-14T10:58:47.815Z,21.40
2018-12-14T11:01:25.816Z,21.27
2018-12-14T11:03:58.927Z,21.83
2018-12-14T11:06:35.441Z,21.87
2018-12-14T11:09:14.554Z,21.07
2018-12-14T11:11:51.166Z,21.07
2018-12-14T11:14:23.640Z,21.60
2018-12-14T11:16:56.563Z,19.83
2018-12-14T11:19:29.392Z,21.13
2018-12-14T11:22:02.275Z,21.67
2018-12-14T11:24:35.319Z,21.23
2018-12-14T11:27:08.384Z,20.40
2018-12-14T11:29:41.382Z,21.30
2018-12-14T11:32:14.327Z,22.70
2018-12-14T11:34:51.261Z,21.37
2018-12-14T11:37:24.065Z,22.40
2018-12-14T11:39:57.190Z,21.37
2018-12-14T11:42:33.798Z,22.73
2018-12-14T11:45:08.578Z,22.00
2018-12-14T11:47:41.782Z,21.73
2018-12-14T11:50:14.454Z,21.27
2018-12-14T11:52:47.592Z,22.07
2018-12-14T11:55:20.294Z,21.67
2018-12-14T11:57:52.755Z,22.67
2018-12-14T12:00:25.719Z,22.93
2018-12-14T12:02:58.822Z,21.67
2018-12-14T12:05:31.630Z,21.87
2018-12-14T12:08:09.526Z,22.73
2018-12-14T12:10:42.543Z,22.20
2018-12-14T12:13:15.436Z,22.20
2018-12-14T12:15:52.489Z,21.77
2018-12-14T12:18:24.793Z,21.57
2018-12-14T12:20:57.205Z,22.13
2018-12-14T12:23:29.466Z,20.93
2018-12-14T12:26:02.622Z,21.83
2018-12-14T12:28:35.759Z,21.97
2018-12-14T12:31:08.642Z,21.63
2018-12-14T12:33:45.818Z,24.43
2018-12-14T12:36:23.011Z,26.93
2018-12-14T12:38:59.642Z,26.27
2018-12-14T12:41:32.512Z,25.13
2018-12-14T12:44:09.396Z,26.40
2018-12-14T12:46:42.318Z,26.57
2018-12-14T12:49:15.434Z,25.03
2018-12-14T12:51:47.910Z,25.00
2018-12-14T12:54:20.954Z,25.40
2018-12-14T12:56:53.315Z,23.57
2018-12-14T12:59:26.433Z,23.77
2018-12-14T13:01:59.786Z,24.07
2018-12-14T13:04:36.977Z,23.50
2018-12-14T13:07:13.998Z,22.73
2018-12-14T13:09:51.415Z,22.53
2018-12-14T13:12:24.078Z,22.40
2018-12-14T13:15:00.363Z,22.50
2018-12-14T13:17:37.633Z,21.67
2018-12-14T13:20:14.698Z,22.47
2018-12-14T13:22:47.557Z,22.77
2018-12-14T13:25:20.751Z,23.03
2018-12-14T13:27:53.454Z,22.37
2018-12-14T13:30:25.988Z,21.73
2018-12-14T13:33:02.846Z,20.07
2018-12-14T13:35:40.139Z,17.87
2018-12-14T13:38:17.235Z,18.97
2018-12-14T13:40:50.987Z,18.50
2018-12-14T13:43:28.776Z,18.13
2018-12-14T13:46:06.269Z,18.43
2018-12-14T13:48:39.723Z,18.93
2018-12-14T13:51:12.834Z,22.63
2018-12-14T13:53:45.896Z,24.10
2018-12-14T13:56:18.999Z,24.53
2018-12-14T13:58:52.395Z,23.43
2018-12-14T14:01:25.678Z,23.93
2018-12-14T14:04:02.378Z,24.57
2018-12-14T14:06:35.561Z,23.47
2018-12-14T14:09:09.061Z,22.60
2018-12-14T14:11:42.214Z,22.40
2018-12-14T14:14:15.708Z,23.23
2018-12-14T14:16:49.676Z,23.27
2018-12-14T14:19:24.065Z,22.10
2018-12-14T14:22:01.039Z,21.83
2018-12-14T14:24:37.985Z,22.07
2018-12-14T14:27:12.106Z,22.60
2018-12-14T14:29:45.491Z,24.13
2018-12-14T14:32:22.674Z,22.23
2018-12-14T14:34:59.731Z,23.10
2018-12-14T14:37:33.435Z,23.23
2018-12-14T14:40:06.433Z,22.77
2018-12-14T14:42:39.925Z,23.30
2018-12-14T14:45:12.834Z,23.57
2018-12-14T14:47:50.776Z,24.17
2018-12-14T14:50:27.385Z,24.77
2018-12-14T14:53:00.879Z,24.40
2018-12-14T14:55:37.826Z,24.87
2018-12-14T14:58:14.942Z,25.27
2018-12-14T15:00:47.982Z,26.13
2018-12-14T15:03:21.515Z,25.60
2018-12-14T15:05:55.093Z,26.43
2018-12-14T15:08:28.477Z,26.13
2018-12-14T15:11:01.382Z,25.73
2018-12-14T15:13:38.130Z,25.73
2018-12-14T15:16:16.050Z,24.57
2018-12-14T15:18:50.130Z,25.73
2018-12-14T15:21:22.828Z,25.30
2018-12-14T15:24:01.228Z,25.00
2018-12-14T15:26:38.197Z,24.83
2018-12-14T15:29:12.812Z,24.67
2018-12-14T15:31:46.664Z,24.37
2018-12-14T15:34:19.891Z,26.03
2018-12-14T15:36:53.021Z,25.77
2018-12-14T15:39:26.558Z,26.10
2018-12-14T15:42:04.113Z,24.30
2018-12-14T15:44:37.003Z,25.93
2018-12-14T15:47:14.142Z,25.53
2018-12-14T15:49:47.383Z,24.67
2018-12-14T15:52:24.595Z,25.40
2018-12-14T15:54:57.819Z,25.00
2018-12-14T15:57:31.042Z,25.93
2018-12-14T16:00:08.873Z,24.90
2018-12-14T16:02:42.304Z,25.97
2018-12-14T16:05:18.386Z,27.60
2018-12-14T16:07:52.027Z,25.97
2018-12-14T16:10:24.964Z,27.27
2018-12-14T16:12:58.497Z,27.10
2018-12-14T16:15:31.559Z,27.33
2018-12-14T16:18:05.032Z,25.77
2018-12-14T16:20:37.880Z,26.13
2018-12-14T16:23:11.293Z,23.63
2018-12-14T16:25:44.132Z,24.57
2018-12-14T16:28:17.730Z,24.73
2018-12-14T16:30:50.827Z,25.13
2018-12-14T16:33:23.935Z,26.00
2018-12-14T16:35:57.285Z,24.67
2018-12-14T16:38:30.726Z,24.60
2018-12-14T16:41:03.859Z,23.17
2018-12-14T16:43:37.086Z,23.13
2018-12-14T16:46:10.459Z,22.40
2018-12-14T16:48:43.921Z,22.40
2018-12-14T16:51:17.441Z,21.93
2018-12-14T16:53:55.169Z,21.33
2018-12-14T16:56:28.232Z,21.60
2018-12-14T16:59:01.543Z,21.50
2018-12-14T17:01:34.592Z,22.10
2018-12-14T17:04:07.802Z,20.37
2018-12-14T17:06:44.104Z,22.40
2018-12-14T17:09:17.392Z,22.13
2018-12-14T17:11:50.495Z,22.83
2018-12-14T17:14:23.354Z,21.67
2018-12-14T17:16:56.510Z,21.93
2018-12-14T17:19:29.890Z,21.67
2018-12-14T17:22:06.818Z,22.67
2018-12-14T17:24:43.187Z,22.60
2018-12-14T17:27:16.338Z,22.20
2018-12-14T17:29:49.184Z,23.27
2018-12-14T17:32:22.346Z,23.73
2018-12-14T17:34:55.429Z,23.70
2018-12-14T17:37:31.830Z,22.27
2018-12-14T17:40:05.097Z,23.23
2018-12-14T17:42:38.005Z,24.60
2018-12-14T17:45:14.314Z,24.10
2018-12-14T17:47:46.810Z,23.00
2018-12-14T17:50:20.258Z,24.93
2018-12-14T17:52:53.274Z,23.77
2018-12-14T17:55:26.945Z,25.23
2018-12-14T17:57:59.586Z,23.73
2018-12-14T18:00:32.816Z,22.97
2018-12-14T18:03:09.060Z,22.17
2018-12-14T18:05:42.256Z,24.60
2018-12-14T18:08:15.418Z,23.03
2018-12-14T18:10:48.652Z,23.77
2018-12-14T18:13:21.516Z,24.93
2018-12-14T18:15:57.903Z,23.37
2018-12-14T18:18:31.074Z,23.53
2018-12-14T18:21:04.363Z,21.77
2018-12-14T18:23:37.821Z,23.97
2018-12-14T18:26:10.934Z,22.40
2018-12-14T18:28:44.387Z,22.80
2018-12-14T18:31:21.254Z,22.83
2018-12-14T18:33:54.583Z,21.80
2018-12-14T18:36:27.724Z,22.30
2018-12-14T18:39:00.985Z,22.30
2018-12-14T18:41:34.024Z,21.37
2018-12-14T18:44:11.182Z,22.70
2018-12-14T18:46:44.788Z,21.50
2018-12-14T18:49:17.554Z,23.37
2018-12-14T18:51:50.761Z,22.30
2018-12-14T18:54:24.129Z,23.13
2018-12-14T18:56:57.048Z,23.13
2018-12-14T18:59:30.670Z,23.07
2018-12-14T19:02:03.750Z,22.57
2018-12-14T19:04:37.006Z,22.93
2018-12-14T19:07:14.192Z,23.10
2018-12-14T19:09:46.986Z,22.50
2018-12-14T19:12:21.133Z,22.90
2018-12-14T19:14:55.357Z,22.23
2018-12-14T19:17:32.969Z,22.53
2018-12-14T19:20:06.670Z,22.40
2018-12-14T19:22:43.182Z,23.07
2018-12-14T19:25:16.869Z,24.67
2018-12-14T19:27:50.944Z,22.87
2018-12-14T19:30:25.229Z,23.20
2018-12-14T19:33:03.203Z,23.90
2018-12-14T19:35:36.561Z,22.90
2018-12-14T19:38:13.761Z,23.43
2018-12-14T19:40:47.792Z,22.77
2018-12-14T19:43:20.390Z,22.83
2018-12-14T19:45:53.498Z,22.83
2018-12-14T19:48:26.714Z,22.43
2018-12-14T19:51:07.095Z,23.97
2018-12-14T19:53:40.692Z,23.57
2018-12-14T19:56:17.389Z,23.33
2018-12-14T19:58:50.486Z,23.37
2018-12-14T20:01:27.898Z,23.43
2018-12-14T20:04:05.509Z,23.63
2018-12-14T20:06:38.979Z,22.73
2018-12-14T20:09:12.085Z,22.77
2018-12-14T20:11:45.178Z,21.93
2018-12-14T20:14:18.516Z,23.47
2018-12-14T20:16:51.522Z,22.73
2018-12-14T20:19:24.659Z,23.47
2018-12-14T20:21:58.258Z,24.13
2018-12-14T20:24:35.045Z,23.67
2018-12-14T20:27:12.622Z,23.47
2018-12-14T20:29:45.569Z,23.90
2018-12-14T20:32:18.829Z,23.47
2018-12-14T20:34:52.056Z,23.57
2018-12-14T20:37:25.611Z,22.07
2018-12-14T20:40:02.424Z,21.20
2018-12-14T20:42:39.899Z,23.00
2018-12-14T20:45:16.983Z,22.73
2018-12-14T20:47:50.213Z,22.73
2018-12-14T20:50:23.120Z,23.07
2018-12-14T20:52:56.065Z,22.73
2018-12-14T20:55:29.006Z,22.47
2018-12-14T20:58:02.302Z,24.27
2018-12-14T21:00:35.643Z,24.97
2018-12-14T21:03:08.902Z,23.30
2018-12-14T21:05:46.026Z,22.43
2018-12-14T21:08:18.924Z,24.10
2018-12-14T21:10:52.338Z,23.60
2018-12-14T21:13:26.392Z,23.80
2018-12-14T21:15:59.479Z,21.97
2018-12-14T21:18:36.130Z,25.20
2018-12-14T21:21:09.628Z,24.10
2018-12-14T21:23:42.681Z,23.97
2018-12-14T21:26:19.963Z,25.50
2018-12-14T21:28:53.222Z,24.00
2018-12-14T21:31:25.598Z,24.10
2018-12-14T21:34:02.026Z,23.37
2018-12-14T21:36:35.247Z,24.43
2018-12-14T21:39:12.940Z,25.13
2018-12-14T21:41:49.731Z,25.73
2018-12-14T21:44:22.597Z,24.13
2018-12-14T21:46:55.174Z,24.97
2018-12-14T21:49:28.591Z,24.83
2018-12-14T21:52:01.615Z,24.77
2018-12-14T21:54:38.075Z,24.07
2018-12-14T21:57:11.140Z,25.87
2018-12-14T21:59:44.494Z,22.13
2018-12-14T22:02:18.522Z,23.23
2018-12-14T22:04:51.068Z,22.00
2018-12-14T22:07:24.347Z,22.90
2018-12-14T22:09:57.561Z,22.10
2018-12-14T22:12:34.002Z,22.73
2018-12-14T22:15:07.210Z,21.90
2018-12-14T22:17:39.664Z,22.03
2018-12-14T22:20:12.772Z,21.43
2018-12-14T22:22:46.091Z,21.57
2018-12-14T22:25:19.311Z,21.53
2018-12-14T22:27:53.020Z,21.73
2018-12-14T22:30:25.877Z,21.93
2018-12-14T22:32:58.954Z,21.33
2018-12-14T22:35:35.399Z,21.30
2018-12-14T22:38:08.536Z,21.20
2018-12-14T22:40:45.891Z,21.23
2018-12-14T22:43:19.114Z,20.80
2018-12-14T22:45:52.486Z,21.63
2018-12-14T22:48:25.585Z,22.43
2018-12-14T22:51:02.578Z,20.40
2018-12-14T22:53:39.502Z,21.17
2018-12-14T22:56:11.697Z,20.57
2018-12-14T22:58:44.243Z,20.40
2018-12-14T23:01:17.703Z,20.17
2018-12-14T23:03:50.795Z,21.47
2018-12-14T23:06:23.718Z,20.97
2018-12-14T23:08:56.940Z,19.77
2018-12-14T23:11:30.196Z,21.27
2018-12-14T23:14:03.280Z,19.20
2018-12-14T23:16:36.478Z,20.53
2018-12-14T23:19:09.526Z,18.93
2018-12-14T23:21:42.718Z,18.97
2018-12-14T23:24:15.830Z,20.00
2018-12-14T23:26:48.261Z,19.33
2018-12-14T23:29:21.570Z,18.67
2018-12-14T23:31:58.746Z,19.13
2018-12-14T23:34:31.826Z,18.03
2018-12-14T23:37:04.927Z,17.87
2018-12-14T23:39:37.968Z,19.20
2018-12-14T23:42:10.870Z,18.00
2018-12-14T23:44:43.817Z,19.33
2018-12-14T23:47:18.322Z,19.20
2018-12-14T23:49:51.395Z,19.37
2018-12-14T23:52:24.639Z,19.33
2018-12-14T23:54:57.942Z,19.40
2018-12-14T23:57:30.454Z,19.77
